Time;durP1;ratioP1;P1;durP2;ratioP2;P2;SDS_P1;SDS_P2;PMS_P1;PMS_P2;Temp;Humidity;BMP_temperature;BMP_pressure;BME280_temperature;BME280_humidity;BME280_pressure;Samples;Min_cycle;Max_cycle;Signal;HPM_P1;HPM_P2
2021/12/20 00:02:01;;;;;;;28.40;14.05;;;;;;;4.06;100.00;100663.47;4950949;28;20129;-86
2021/12/20 00:04:27;;;;;;;37.17;15.93;;;;;;;4.10;100.00;100659.69;4946908;28;20022;-86
2021/12/20 00:06:52;;;;;;;37.15;16.48;;;;;;;4.09;100.00;100658.03;4945031;28;20400;-85
2021/12/20 00:09:18;;;;;;;32.53;15.00;;;;;;;4.11;100.00;100660.53;4978180;28;20397;-85
2021/12/20 00:11:43;;;;;;;29.98;15.20;;;;;;;4.17;100.00;100664.47;4961387;28;20054;-86
2021/12/20 00:14:09;;;;;;;34.08;15.45;;;;;;;4.08;100.00;100651.19;4978195;28;20389;-90
2021/12/20 00:16:35;;;;;;;28.88;13.95;;;;;;;4.14;100.00;100661.16;4960658;28;20137;-88
2021/12/20 00:19:00;;;;;;;31.67;13.55;;;;;;;4.11;100.00;100656.16;4964261;28;20034;-88
2021/12/20 00:21:26;;;;;;;26.08;14.07;;;;;;;4.15;100.00;100654.16;4961384;28;20043;-88
2021/12/20 00:23:52;;;;;;;30.00;13.60;;;;;;;4.30;100.00;100667.81;4961785;28;20041;-87
2021/12/20 00:26:23;;;;;;;28.60;13.63;;;;;;;4.13;100.00;100636.13;4946300;28;20034;-86
2021/12/20 00:28:49;;;;;;;25.10;12.20;;;;;;;4.23;100.00;100638.00;4946407;28;20035;-88
2021/12/20 00:31:14;;;;;;;28.73;14.25;;;;;;;4.26;100.00;100649.03;4982412;28;20054;-88
2021/12/20 00:33:44;;;;;;;25.33;11.25;;;;;;;4.19;100.00;100634.00;4955832;28;20094;-90
2021/12/20 00:36:10;;;;;;;28.10;13.63;;;;;;;4.33;100.00;100658.97;4942251;28;20045;-92
2021/12/20 00:41:23;;;;;;;23.98;11.35;;;;;;;4.14;100.00;100629.13;4967957;28;20042;-91
2021/12/20 00:43:49;;;;;;;25.40;11.95;;;;;;;4.34;100.00;100650.22;4948837;28;20121;-88
2021/12/20 00:46:15;;;;;;;23.85;11.13;;;;;;;4.28;100.00;100646.28;4947309;28;20041;-88
2021/12/20 00:48:41;;;;;;;25.90;10.88;;;;;;;4.12;100.00;100623.22;4950350;28;20130;-87
2021/12/20 00:51:06;;;;;;;23.80;11.35;;;;;;;4.35;100.00;100657.91;4948765;28;20031;-89
2021/12/20 00:53:32;;;;;;;23.10;11.98;;;;;;;4.25;100.00;100639.56;4948854;28;20022;-87
2021/12/20 00:55:58;;;;;;;24.02;12.40;;;;;;;4.26;100.00;100637.78;4964010;28;20042;-87
2021/12/20 00:58:24;;;;;;;25.10;11.55;;;;;;;4.26;100.00;100627.38;4946536;28;20041;-87
2021/12/20 01:00:55;;;;;;;27.88;12.05;;;;;;;4.24;100.00;100624.06;4947907;28;20035;-88
2021/12/20 01:03:24;;;;;;;26.17;12.73;;;;;;;4.36;100.00;100643.97;4971842;28;20087;-87
2021/12/20 01:05:50;;;;;;;27.50;11.52;;;;;;;4.39;100.00;100641.13;4948819;28;20031;-88
2021/12/20 01:08:18;;;;;;;21.90;11.27;;;;;;;4.19;100.00;100608.81;4952246;28;20036;-89
2021/12/20 01:10:51;;;;;;;24.58;11.00;;;;;;;4.08;100.00;100588.81;4971988;28;20130;-90
2021/12/20 01:13:19;;;;;;;28.30;12.95;;;;;;;4.25;100.00;100605.78;4954388;28;20119;-89
2021/12/20 01:19:33;;;;;;;22.95;10.70;;;;;;;4.25;100.00;100587.59;4984212;28;20169;-90
2021/12/20 01:22:00;;;;;;;23.88;11.82;;;;;;;4.21;100.00;100588.72;4959875;28;20035;-90
2021/12/20 01:24:26;;;;;;;27.42;11.63;;;;;;;4.29;100.00;100595.97;4956287;28;20041;-88
2021/12/20 01:26:52;;;;;;;27.40;11.65;;;;;;;4.39;100.00;100612.53;4957322;28;20038;-90
2021/12/20 01:29:22;;;;;;;24.30;12.43;;;;;;;4.23;100.00;100588.63;4964414;28;20065;-90
2021/12/20 01:31:48;;;;;;;26.88;12.13;;;;;;;4.37;100.00;100604.03;4966630;28;20030;-89
2021/12/20 01:34:14;;;;;;;26.40;12.05;;;;;;;4.27;100.00;100564.06;4981167;28;20066;-89
2021/12/20 01:36:40;;;;;;;22.45;11.55;;;;;;;4.25;100.00;100563.34;4962197;28;20039;-89
2021/12/20 01:39:07;;;;;;;26.98;11.50;;;;;;;4.37;100.00;100600.59;4959323;28;20039;-90
2021/12/20 01:41:38;;;;;;;25.85;11.65;;;;;;;4.41;100.00;100600.25;4952817;28;20121;-88
2021/12/20 01:44:04;;;;;;;26.70;12.15;;;;;;;4.38;100.00;100584.88;4949113;28;20158;-87
2021/12/20 01:46:30;;;;;;;23.27;11.27;;;;;;;4.53;100.00;100597.69;4952310;28;20054;-90
2021/12/20 01:52:14;;;;;;;26.13;11.70;;;;;;;4.40;100.00;100592.56;5319177;23;20053;-89
2021/12/20 01:54:44;;;;;;;22.63;11.10;;;;;;;4.35;100.00;100576.47;4961785;28;20038;-88
2021/12/20 01:57:09;;;;;;;22.45;11.15;;;;;;;4.54;100.00;100600.16;4957688;28;20077;-90
2021/12/20 01:59:39;;;;;;;21.60;11.00;;;;;;;4.56;100.00;100602.66;4958823;28;20042;-89
2021/12/20 02:02:06;;;;;;;21.73;11.35;;;;;;;4.54;100.00;100588.94;4958281;28;20102;-91
2021/12/20 02:04:40;;;;;;;31.48;13.98;;;;;;;4.57;100.00;100596.50;4957473;28;20045;-88
2021/12/20 02:07:07;;;;;;;30.58;12.68;;;;;;;4.64;100.00;100596.88;4967560;28;20027;-88
2021/12/20 02:09:32;;;;;;;29.60;14.35;;;;;;;4.54;100.00;100586.34;4952030;28;20166;-88
2021/12/20 02:11:59;;;;;;;37.25;15.43;;;;;;;4.56;100.00;100584.44;4951378;28;20104;-88
2021/12/20 02:14:24;;;;;;;27.48;14.68;;;;;;;4.53;100.00;100574.28;4963972;28;20031;-87
2021/12/20 02:16:50;;;;;;;31.45;14.70;;;;;;;4.58;100.00;100579.94;4946689;28;20047;-87
2021/12/20 02:19:17;;;;;;;32.60;15.85;;;;;;;4.55;100.00;100570.59;4947898;28;20031;-89
2021/12/20 02:21:45;;;;;;;31.92;14.63;;;;;;;4.43;100.00;100561.16;4952246;28;20063;-88
2021/12/20 02:24:12;;;;;;;31.48;14.63;;;;;;;4.49;100.00;100567.63;4943077;28;20054;-87
2021/12/20 02:26:39;;;;;;;33.13;12.57;;;;;;;4.49;100.00;100550.28;4943063;28;20054;-87
2021/12/20 02:29:08;;;;;;;26.98;13.80;;;;;;;4.57;100.00;100560.09;4959075;28;20034;-88
2021/12/20 02:39:29;;;;;;;24.05;11.80;;;;;;;4.77;100.00;100584.56;4958420;28;20508;-87
2021/12/20 02:41:57;;;;;;;25.52;12.45;;;;;;;4.57;100.00;100552.28;4981763;28;20066;-88
2021/12/20 02:44:25;;;;;;;28.35;13.07;;;;;;;4.67;100.00;100568.81;4951935;28;20485;-89
2021/12/20 02:47:05;;;;;;;29.20;13.48;;;;;;;4.68;100.00;100573.06;4949157;28;20039;-87
2021/12/20 02:49:33;;;;;;;23.77;11.82;;;;;;;4.61;100.00;100553.69;4950007;28;20049;-89
2021/12/20 02:52:03;;;;;;;26.02;10.75;;;;;;;4.61;100.00;100548.50;4949672;28;20114;-86
2021/12/20 02:54:29;;;;;;;21.38;10.77;;;;;;;4.65;100.00;100568.13;4979486;28;20042;-87
2021/12/20 02:56:54;;;;;;;22.08;10.25;;;;;;;4.50;100.00;100558.88;4945770;28;20034;-86
2021/12/20 02:59:20;;;;;;;21.45;10.75;;;;;;;4.43;100.00;100548.97;4946213;28;20038;-87
2021/12/20 03:01:52;;;;;;;20.25;9.15;;;;;;;4.54;100.00;100552.53;4945454;28;20486;-86
2021/12/20 03:04:19;;;;;;;19.00;8.75;;;;;;;4.55;100.00;100548.97;4964774;28;20027;-86
2021/12/20 03:06:50;;;;;;;28.05;11.75;;;;;;;4.59;100.00;100563.41;4949855;28;20031;-86
2021/12/20 03:09:20;;;;;;;26.17;10.85;;;;;;;4.45;100.00;100553.22;4947692;28;20043;-87
2021/12/20 03:11:48;;;;;;;21.40;11.27;;;;;;;4.36;100.00;100532.19;4963568;28;20066;-89
2021/12/20 03:14:23;;;;;;;25.88;11.40;;;;;;;4.53;100.00;100556.06;4948341;28;20035;-88
2021/12/20 03:16:48;;;;;;;24.90;11.98;;;;;;;4.50;100.00;100553.69;4948427;28;20038;-88
2021/12/20 03:19:14;;;;;;;29.80;12.00;;;;;;;4.26;100.00;100519.06;4948905;28;20035;-88
2021/12/20 03:21:41;;;;;;;26.10;12.23;;;;;;;4.29;100.00;100520.56;4947941;28;20035;-87
2021/12/20 03:24:09;;;;;;;29.45;12.25;;;;;;;4.43;100.00;100535.16;4948370;28;20411;-88
2021/12/20 03:26:36;;;;;;;26.30;11.40;;;;;;;4.39;100.00;100534.53;4947707;28;20031;-86
2021/12/20 03:29:04;;;;;;;27.95;10.98;;;;;;;4.46;100.00;100550.50;4949656;28;20106;-89
2021/12/20 03:31:29;;;;;;;22.08;10.82;;;;;;;4.42;100.00;100531.69;4953509;28;20034;-87
2021/12/20 03:33:55;;;;;;;30.30;12.55;;;;;;;4.48;100.00;100532.16;4954567;28;20042;-87
2021/12/20 03:36:21;;;;;;;24.20;11.15;;;;;;;4.42;100.00;100517.88;4953891;28;20049;-87
2021/12/20 03:38:47;;;;;;;27.35;11.27;;;;;;;4.41;100.00;100518.81;4951471;28;20046;-87
2021/12/20 03:41:13;;;;;;;24.67;10.57;;;;;;;4.56;100.00;100545.44;4951414;28;20039;-88
2021/12/20 03:43:39;;;;;;;24.85;11.25;;;;;;;4.59;100.00;100526.97;4952092;28;20041;-87
2021/12/20 03:46:35;;;;;;;27.88;11.52;;;;;;;4.33;100.00;100483.03;4958603;28;20042;-88
2021/12/20 03:49:03;;;;;;;23.27;10.82;;;;;;;4.49;100.00;100513.03;4962278;28;20030;-90
2021/12/20 03:51:29;;;;;;;28.23;11.73;;;;;;;4.40;100.00;100499.78;4952147;28;20055;-89
2021/12/20 03:53:54;;;;;;;26.65;12.18;;;;;;;4.49;100.00;100503.47;4956317;28;20117;-90
2021/12/20 03:56:28;;;;;;;27.05;12.48;;;;;;;4.55;100.00;100512.56;4957262;28;20385;-89
2021/12/20 03:58:55;;;;;;;26.33;11.95;;;;;;;4.39;100.00;100472.16;4952450;28;20086;-88
2021/12/20 04:01:21;;;;;;;30.45;12.27;;;;;;;4.67;100.00;100521.19;4958703;28;20043;-90
2021/12/20 04:03:49;;;;;;;28.00;12.80;;;;;;;4.55;100.00;100525.56;4957952;28;20065;-90
2021/12/20 04:06:15;;;;;;;28.08;12.95;;;;;;;4.21;100.00;100482.16;4990909;28;20026;-87
2021/12/20 04:08:42;;;;;;;24.02;11.93;;;;;;;4.24;100.00;100478.53;4957836;28;20098;-90
2021/12/20 04:11:09;;;;;;;32.38;12.70;;;;;;;4.30;100.00;100480.63;4956668;28;20045;-90
2021/12/20 04:13:40;;;;;;;30.48;13.27;;;;;;;4.26;100.00;100472.28;4961619;28;20082;-88
2021/12/20 04:16:09;;;;;;;30.95;13.55;;;;;;;4.37;100.00;100494.00;4977109;28;20138;-91
2021/12/20 04:18:47;;;;;;;31.63;13.38;;;;;;;4.38;100.00;100491.28;4959187;28;20496;-90
2021/12/20 04:21:18;;;;;;;32.88;13.63;;;;;;;4.63;100.00;100515.38;4953278;28;20046;-89
2021/12/20 04:23:49;;;;;;;27.23;12.75;;;;;;;4.59;100.00;100513.97;4957183;28;20532;-90
2021/12/20 04:26:17;;;;;;;40.35;15.73;;;;;;;4.38;100.00;100485.25;4957759;28;20552;-91
2021/12/20 04:28:43;;;;;;;36.40;14.63;;;;;;;4.52;100.00;100507.56;4974053;28;20050;-91
2021/12/20 04:31:09;;;;;;;31.85;14.25;;;;;;;4.67;100.00;100518.59;4955430;28;20039;-91
2021/12/20 04:33:34;;;;;;;37.25;14.90;;;;;;;4.54;100.00;100490.13;4953217;28;20030;-89
2021/12/20 04:36:00;;;;;;;40.55;16.42;;;;;;;4.45;100.00;100501.22;4951883;28;20050;-90
2021/12/20 04:38:29;;;;;;;43.05;16.65;;;;;;;4.39;100.00;100495.53;4969419;28;20035;-89
2021/12/20 04:40:55;;;;;;;35.67;15.82;;;;;;;4.31;100.00;100482.28;4954134;28;20123;-92
2021/12/20 04:43:20;;;;;;;46.72;18.55;;;;;;;4.19;100.00;100498.84;4954910;28;20058;-87
2021/12/20 04:45:49;;;;;;;41.22;17.42;;;;;;;4.20;100.00;100480.50;4958806;28;20046;-89
2021/12/20 04:48:15;;;;;;;38.63;16.63;;;;;;;4.19;100.00;100470.25;4957535;28;20062;-88
2021/12/20 04:50:41;;;;;;;39.85;18.25;;;;;;;4.10;100.00;100466.59;4959002;28;20042;-89
2021/12/20 04:53:20;;;;;;;43.40;18.00;;;;;;;4.49;100.00;100534.66;4964322;28;20039;-90
2021/12/20 04:55:47;;;;;;;44.92;18.45;;;;;;;4.15;100.00;100474.84;4960537;28;20073;-89
2021/12/20 04:58:14;;;;;;;37.58;17.42;;;;;;;4.17;100.00;100477.34;4974348;28;20045;-90
2021/12/20 05:00:41;;;;;;;49.90;20.50;;;;;;;4.27;100.00;100504.28;4957390;28;20560;-90
2021/12/20 05:03:08;;;;;;;46.85;19.77;;;;;;;4.14;100.00;100488.78;4960551;28;20102;-90
2021/12/20 05:05:43;;;;;;;46.30;18.70;;;;;;;4.06;100.00;100471.19;4962018;28;20090;-90
2021/12/20 05:08:13;;;;;;;40.83;18.00;;;;;;;4.10;100.00;100467.41;4971007;28;20038;-89
2021/12/20 05:10:40;;;;;;;66.60;20.33;;;;;;;4.28;100.00;100511.13;4952465;28;20042;-90
2021/12/20 05:13:09;;;;;;;52.97;20.58;;;;;;;4.05;100.00;100474.72;4952410;28;20035;-88
2021/12/20 05:19:30;;;;;;;54.50;20.42;;;;;;;4.34;100.00;100510.69;4998006;28;20033;-91
2021/12/20 05:26:05;;;;;;;52.28;20.35;;;;;;;4.12;100.00;100481.09;4959218;29;20083;-91
2021/12/20 05:28:36;;;;;;;116.93;24.02;;;;;;;4.42;100.00;100531.69;4932138;29;20063;-90
2021/12/20 05:31:03;;;;;;;249.05;30.83;;;;;;;4.08;100.00;100487.47;4937963;29;20070;-91
2021/12/20 05:33:30;;;;;;;488.52;46.53;;;;;;;3.99;100.00;100488.19;4943013;29;20047;-91
2021/12/20 05:35:56;;;;;;;858.10;70.75;;;;;;;4.01;100.00;100499.28;4928215;29;20141;-89
2021/12/20 05:38:23;;;;;;;837.55;68.43;;;;;;;4.30;100.00;100524.81;4928142;29;20028;-90
2021/12/20 05:40:49;;;;;;;999.95;88.38;;;;;;;3.92;100.00;100484.38;4927425;29;20028;-91
2021/12/20 05:43:16;;;;;;;229.60;32.35;;;;;;;3.91;100.00;100482.72;4923587;29;20047;-88
2021/12/20 05:45:45;;;;;;;643.97;59.35;;;;;;;4.05;100.00;100490.31;4919758;29;20043;-92
2021/12/20 05:48:11;;;;;;;198.05;28.58;;;;;;;4.18;100.00;100503.19;4918779;29;20035;-90
2021/12/20 05:50:37;;;;;;;914.88;77.18;;;;;;;4.12;100.00;100501.88;4935298;29;20046;-90
2021/12/20 05:53:03;;;;;;;808.10;63.97;;;;;;;3.82;100.00;100481.63;4917949;29;20055;-89
2021/12/20 05:55:29;;;;;;;1135.50;92.40;;;;;;;3.89;100.00;100501.03;4950512;29;20039;-90
2021/12/20 05:57:55;;;;;;;186.60;28.30;;;;;;;3.79;100.00;100474.09;4919827;29;20047;-90
2021/12/20 06:00:21;;;;;;;398.65;35.47;;;;;;;4.02;100.00;100498.34;4938314;29;20062;-91
2021/12/20 06:02:50;;;;;;;572.28;50.00;;;;;;;3.93;100.00;100488.63;4933197;29;20041;-87
2021/12/20 06:05:16;;;;;;;430.80;46.75;;;;;;;4.19;100.00;100511.84;4944774;29;20102;-89
2021/12/20 06:07:43;;;;;;;750.42;63.22;;;;;;;4.18;100.00;100512.78;4945561;29;20035;-90
2021/12/20 06:10:15;;;;;;;684.63;53.17;;;;;;;4.21;100.00;100510.75;4952050;29;20043;-90
2021/12/20 06:12:41;;;;;;;436.27;38.67;;;;;;;3.97;100.00;100461.50;4955369;29;20063;-90
2021/12/20 06:15:08;;;;;;;507.65;41.75;;;;;;;3.90;100.00;100475.88;4951759;29;20035;-90
2021/12/20 06:17:35;;;;;;;1046.90;81.65;;;;;;;3.85;100.00;100481.44;4951134;29;20039;-89
2021/12/20 06:20:20;;;;;;;953.45;67.68;;;;;;;3.72;100.00;100461.56;4959375;29;20046;-91
2021/12/20 06:22:47;;;;;;;1132.85;93.97;;;;;;;3.94;100.00;100470.34;4960899;29;20043;-90
2021/12/20 06:25:14;;;;;;;216.80;28.77;;;;;;;3.83;100.00;100450.38;4948168;29;20035;-89
2021/12/20 06:27:40;;;;;;;424.92;37.78;;;;;;;3.90;100.00;100455.09;4956074;29;20054;-88
2021/12/20 06:30:10;;;;;;;673.83;47.92;;;;;;;4.03;100.00;100475.78;4955548;29;20040;-89
2021/12/20 06:32:38;;;;;;;894.25;70.75;;;;;;;3.93;100.00;100470.44;4947110;29;20038;-88
2021/12/20 06:35:10;;;;;;;611.80;59.08;;;;;;;3.88;100.00;100454.38;4960572;29;20055;-89
2021/12/20 06:41:57;;;;;;;1023.25;78.68;;;;;;;3.80;100.00;100462.75;4979317;29;20116;-90
2021/12/20 06:44:33;;;;;;;722.55;58.97;;;;;;;3.82;100.00;100460.88;4978328;29;20019;-89
2021/12/20 06:50:54;;;;;;;1239.03;87.82;;;;;;;3.85;100.00;100464.06;4980051;29;20076;-91
2021/12/20 06:53:27;;;;;;;312.42;31.52;;;;;;;3.91;100.00;100464.53;4945515;29;20059;-92
2021/12/20 06:55:53;;;;;;;;;;;;;;;4.12;100.00;100512.28;4959990;29;20088;-89
2021/12/20 06:58:19;;;;;;;962.50;74.47;;;;;;;4.21;100.00;100521.16;4944810;29;19922;-91
2021/12/20 07:00:47;;;;;;;754.08;59.38;;;;;;;3.93;100.00;100486.88;4957529;29;20039;-92
2021/12/20 07:03:12;;;;;;;1225.90;96.35;;;;;;;4.19;100.00;100511.84;4951482;29;20093;-89
2021/12/20 07:05:38;;;;;;;931.28;68.97;;;;;;;4.21;100.00;100509.94;4953873;29;20039;-89
2021/12/20 07:08:04;;;;;;;1330.57;110.25;;;;;;;4.07;100.00;100504.00;4938900;29;20046;-90
2021/12/20 07:10:30;;;;;;;1394.78;115.88;;;;;;;4.00;100.00;100508.84;4954730;29;20062;-90
2021/12/20 07:13:01;;;;;;;1192.80;93.03;;;;;;;3.88;100.00;100482.97;4954691;29;20031;-90
2021/12/20 07:15:31;;;;;;;1089.80;98.13;;;;;;;3.99;100.00;100483.81;4937580;29;20039;-89
2021/12/20 07:17:58;;;;;;;747.95;70.80;;;;;;;3.94;100.00;100475.53;4954449;29;20043;-91
2021/12/20 07:20:24;;;;;;;845.90;74.53;;;;;;;4.06;100.00;100485.97;4956876;29;20093;-89
2021/12/20 07:22:50;;;;;;;996.88;81.97;;;;;;;4.11;100.00;100513.22;4945486;29;20039;-90
2021/12/20 07:25:18;;;;;;;691.20;61.45;;;;;;;3.89;100.00;100469.03;4962017;29;20027;-88
2021/12/20 07:27:47;;;;;;;1264.55;116.68;;;;;;;3.88;100.00;100472.56;4939190;29;20070;-90
2021/12/20 07:39:04;;;;;;;448.05;49.38;;;;;;;4.27;100.00;100514.66;4581530;23;20062;-91
2021/12/20 07:41:30;;;;;;;230.88;36.38;;;;;;;4.23;100.00;100502.84;4983439;28;20196;-90
2021/12/20 07:43:56;;;;;;;463.77;47.58;;;;;;;4.19;100.00;100507.44;4968584;28;20124;-88
2021/12/20 07:46:22;;;;;;;199.02;30.27;;;;;;;4.17;100.00;100495.53;4967800;28;20432;-87
2021/12/20 07:48:49;;;;;;;205.00;35.80;;;;;;;4.32;100.00;100522.94;4983140;28;20030;-89
2021/12/20 07:51:15;;;;;;;95.47;28.88;;;;;;;4.16;100.00;100488.69;4998752;28;20038;-88
2021/12/20 07:53:41;;;;;;;527.28;65.07;;;;;;;4.23;100.00;100514.09;4987449;28;20044;-88
2021/12/20 07:56:07;;;;;;;298.73;41.17;;;;;;;4.06;100.00;100491.97;4988384;28;20396;-88
2021/12/20 07:58:34;;;;;;;679.65;62.22;;;;;;;4.24;100.00;100520.94;4991828;28;20033;-86
2021/12/20 08:01:01;;;;;;;88.72;30.90;;;;;;;4.26;100.00;100497.41;4986579;28;20408;-90
2021/12/20 08:03:28;;;;;;;760.97;75.40;;;;;;;4.14;100.00;100510.41;4991238;28;20041;-89
2021/12/20 08:05:54;;;;;;;219.55;36.65;;;;;;;4.25;100.00;100493.16;4999851;28;20040;-88
2021/12/20 08:08:20;;;;;;;628.40;60.63;;;;;;;4.08;100.00;100471.06;4976454;28;20034;-90
2021/12/20 08:10:46;;;;;;;414.08;51.45;;;;;;;4.18;100.00;100492.81;4974719;28;20035;-90
2021/12/20 08:13:12;;;;;;;318.05;37.45;;;;;;;4.25;100.00;100522.59;4974270;28;20034;-89
2021/12/20 08:15:38;;;;;;;558.67;57.30;;;;;;;4.16;100.00;100512.06;4973183;28;20038;-88
2021/12/20 08:18:06;;;;;;;313.73;36.22;;;;;;;4.08;100.00;100521.25;4974413;28;20038;-88
2021/12/20 08:20:32;;;;;;;272.88;33.40;;;;;;;4.04;100.00;100522.44;4976017;28;20045;-91
2021/12/20 08:22:58;;;;;;;153.98;28.92;;;;;;;3.83;100.00;100478.94;4976375;28;20045;-90
2021/12/20 08:25:24;;;;;;;143.65;31.42;;;;;;;4.13;100.00;100513.97;4994082;28;20030;-89
2021/12/20 08:27:51;;;;;;;60.70;22.20;;;;;;;4.29;100.00;100529.22;4977789;28;20041;-88
2021/12/20 08:30:21;;;;;;;67.60;20.98;;;;;;;4.04;100.00;100519.84;4978594;28;20042;-90
2021/12/20 08:32:47;;;;;;;56.08;20.08;;;;;;;3.91;100.00;100482.72;4977096;28;20049;-91
2021/12/20 08:35:14;;;;;;;65.90;22.65;;;;;;;4.10;100.00;100513.34;4975858;28;20042;-89
2021/12/20 08:37:41;;;;;;;70.85;23.50;;;;;;;4.25;100.00;100519.16;4976954;28;20134;-90
2021/12/20 08:40:10;;;;;;;53.40;22.67;;;;;;;4.18;100.00;100499.78;4976003;28;20046;-90
2021/12/20 08:42:37;;;;;;;46.95;17.15;;;;;;;4.09;100.00;100483.94;4978177;28;20034;-88
2021/12/20 08:45:05;;;;;;;212.15;35.53;;;;;;;4.10;100.00;100483.00;4962223;28;20035;-90
2021/12/20 08:47:32;;;;;;;44.80;18.73;;;;;;;4.13;100.00;100487.13;4975737;28;20042;-91
2021/12/20 08:50:03;;;;;;;52.83;22.17;;;;;;;4.15;100.00;100480.03;4975063;28;20054;-90
2021/12/20 08:52:30;;;;;;;54.10;24.48;;;;;;;4.27;100.00;100481.72;4975936;28;20038;-92
2021/12/20 08:54:57;;;;;;;39.72;13.75;;;;;;;4.32;100.00;100507.34;4976982;28;20073;-89
2021/12/20 08:57:23;;;;;;;38.10;12.07;;;;;;;4.41;100.00;100517.06;4977708;28;20030;-88
2021/12/20 08:59:49;;;;;;;123.93;26.00;;;;;;;4.12;100.00;100470.69;4976401;28;20045;-88
2021/12/20 09:02:15;;;;;;;68.68;19.90;;;;;;;4.16;100.00;100475.69;4976867;28;20110;-89
2021/12/20 09:04:41;;;;;;;36.20;14.50;;;;;;;4.31;100.00;100479.69;4977291;28;20034;-90
2021/12/20 09:07:14;;;;;;;29.88;12.13;;;;;;;4.50;100.00;100492.13;4978846;28;20076;-89
2021/12/20 09:09:43;;;;;;;30.80;13.40;;;;;;;4.49;100.00;100476.63;4985367;28;20111;-89
2021/12/20 09:12:19;;;;;;;43.72;17.38;;;;;;;4.40;100.00;100471.19;4986631;28;20042;-90
2021/12/20 09:14:46;;;;;;;36.92;13.68;;;;;;;4.42;100.00;100466.69;5052020;23;20118;-89
2021/12/20 09:17:15;;;;;;;34.95;12.27;;;;;;;4.23;100.00;100476.88;4962497;28;20055;-87
2021/12/20 09:19:41;;;;;;;42.33;15.20;;;;;;;4.25;100.00;100483.63;4958937;28;20073;-91
2021/12/20 09:22:10;;;;;;;33.97;14.68;;;;;;;4.49;100.00;100497.41;4941284;28;20050;-89
2021/12/20 09:24:38;;;;;;;40.20;15.98;;;;;;;4.43;100.00;100473.56;4956364;28;20441;-90
2021/12/20 09:27:04;;;;;;;35.20;15.35;;;;;;;4.55;100.00;100489.16;4957074;28;20043;-90
2021/12/20 09:29:30;;;;;;;46.40;16.38;;;;;;;4.45;100.00;100472.59;4957968;28;20057;-91
2021/12/20 09:31:58;;;;;;;52.90;16.63;;;;;;;4.21;100.00;100468.38;4959414;28;20129;-91
2021/12/20 09:34:25;;;;;;;35.80;16.27;;;;;;;4.42;100.00;100487.50;4945903;28;20038;-92
2021/12/20 09:36:54;;;;;;;45.00;14.43;;;;;;;4.33;100.00;100472.63;4977451;28;20042;-93
2021/12/20 09:39:23;;;;;;;35.53;14.15;;;;;;;4.36;100.00;100472.38;4960699;28;20026;-91
2021/12/20 09:44:23;;;;;;;44.63;15.40;;;;;;;4.49;100.00;100502.63;4958658;28;20512;-89
2021/12/20 09:46:49;;;;;;;58.38;19.95;;;;;;;4.23;100.00;100466.47;4942362;28;20529;-90
2021/12/20 09:49:19;;;;;;;51.00;17.75;;;;;;;4.56;100.00;100509.03;4956264;28;20035;-90
2021/12/20 09:51:45;;;;;;;61.35;19.60;;;;;;;4.59;100.00;100526.97;4966246;28;20045;-90
2021/12/20 09:54:10;;;;;;;60.60;23.10;;;;;;;4.61;100.00;100509.47;4951044;28;20058;-90
2021/12/20 09:56:39;;;;;;;61.83;20.15;;;;;;;4.52;100.00;100486.78;4952499;28;20564;-88
2021/12/20 09:59:09;;;;;;;47.90;17.70;;;;;;;4.72;100.00;100504.28;4948079;28;20097;-89
2021/12/20 10:01:35;;;;;;;46.33;19.60;;;;;;;4.76;100.00;100509.25;4947950;28;20034;-88
2021/12/20 10:04:03;;;;;;;47.45;18.48;;;;;;;4.79;100.00;100507.22;4962589;28;20110;-88
2021/12/20 10:06:30;;;;;;;44.00;17.17;;;;;;;4.84;100.00;100502.50;4948025;28;20145;-90
2021/12/20 10:09:03;;;;;;;45.95;18.33;;;;;;;4.90;100.00;100489.94;4965258;28;20038;-86
2021/12/20 10:11:29;;;;;;;37.50;16.23;;;;;;;4.87;100.00;100493.59;4959162;28;20062;-83
2021/12/20 10:14:24;;;;;;;39.72;16.02;;;;;;;5.10;100.00;100509.16;4941263;28;20137;-84
2021/12/20 10:17:05;;;;;;;38.38;16.00;;;;;;;5.19;100.00;100516.25;4955857;28;20065;-85
2021/12/20 10:19:37;;;;;;;41.15;16.98;;;;;;;5.11;100.00;100513.41;4985925;28;20027;-86
2021/12/20 10:22:25;;;;;;;46.45;19.15;;;;;;;5.08;100.00;100509.28;4945106;28;20050;-87
2021/12/20 10:24:51;;;;;;;43.08;15.77;;;;;;;5.05;100.00;100527.75;4942088;28;20117;-86
2021/12/20 10:27:33;;;;;;;38.75;15.75;;;;;;;5.01;100.00;100518.53;4960222;28;20540;-86
2021/12/20 10:30:01;;;;;;;44.78;18.42;;;;;;;5.04;100.00;100522.66;4957861;28;20159;-88
2021/12/20 10:32:43;;;;;;;45.53;18.58;;;;;;;5.08;100.00;100519.72;4962078;28;20035;-89
2021/12/20 10:35:31;;;;;;;45.65;18.83;;;;;;;5.02;100.00;100519.38;4945314;28;20039;-87
2021/12/20 10:38:22;;;;;;;57.88;18.73;;;;;;;5.02;100.00;100519.38;4946865;28;20497;-85
2021/12/20 10:40:53;;;;;;;59.15;21.70;;;;;;;4.99;100.00;100521.25;4949142;28;20034;-90
2021/12/20 10:43:28;;;;;;;42.38;19.90;;;;;;;4.95;100.00;100493.00;4971960;28;20036;-86
2021/12/20 10:45:55;;;;;;;44.40;19.88;;;;;;;5.08;100.00;100513.66;4940811;28;20053;-86
2021/12/20 10:48:30;;;;;;;39.42;17.35;;;;;;;5.04;100.00;100507.06;4944974;28;20031;-86
2021/12/20 10:50:57;;;;;;;51.70;18.67;;;;;;;4.94;100.00;100507.78;4955045;28;20071;-86
2021/12/20 10:53:25;;;;;;;49.83;17.38;;;;;;;4.73;100.00;100505.09;4943527;28;20023;-87
2021/12/20 10:55:54;;;;;;;43.40;17.27;;;;;;;4.91;100.00;100494.19;4983913;28;20038;-87
2021/12/20 10:58:38;;;;;;;45.50;17.05;;;;;;;4.83;100.00;100502.59;4958718;28;20039;-87
2021/12/20 11:03:55;;;;;;;48.30;19.00;;;;;;;5.07;100.00;100506.81;4979402;28;20031;-86
2021/12/20 11:09:07;;;;;;;49.40;19.55;;;;;;;4.96;100.00;100500.69;4980447;28;20046;-86
2021/12/20 11:11:39;;;;;;;38.35;18.63;;;;;;;5.07;100.00;100506.81;4943705;28;20027;-86
2021/12/20 11:14:06;;;;;;;46.97;20.30;;;;;;;5.22;100.00;100508.19;4946957;28;20046;-86
2021/12/20 11:16:43;;;;;;;44.35;18.75;;;;;;;5.24;100.00;100495.06;4947325;28;20042;-87
2021/12/20 11:19:25;;;;;;;52.03;18.52;;;;;;;5.34;100.00;100501.16;4947425;28;20034;-85
2021/12/20 11:21:54;;;;;;;38.83;16.80;;;;;;;5.33;100.00;100501.31;4969692;28;20045;-90
2021/12/20 11:24:58;;;;;;;41.70;15.82;;;;;;;5.36;100.00;100495.84;4962127;28;20516;-90
2021/12/20 11:27:32;;;;;;;40.85;14.68;;;;;;;5.25;100.00;100494.91;4894765;29;20040;-90
2021/12/20 11:30:05;;;;;;;37.58;15.15;;;;;;;5.19;100.00;100469.38;4966986;28;20046;-90
2021/12/20 11:32:31;;;;;;;34.55;15.93;;;;;;;5.09;100.00;100438.06;4961037;28;20031;-90
2021/12/20 11:34:57;;;;;;;41.08;15.90;;;;;;;5.31;100.00;100464.16;4959773;28;20481;-90
2021/12/20 11:37:25;;;;;;;28.88;14.57;;;;;;;5.39;100.00;100465.16;4946255;28;20042;-89
2021/12/20 11:39:52;;;;;;;38.67;15.07;;;;;;;5.54;100.00;100477.88;4967094;28;20039;-89
2021/12/20 11:42:21;;;;;;;27.98;14.38;;;;;;;5.36;100.00;100449.78;4956652;28;20045;-90
2021/12/20 11:44:49;;;;;;;31.55;13.45;;;;;;;5.53;100.00;100451.03;4957492;28;20039;-90
2021/12/20 11:47:17;;;;;;;31.90;14.57;;;;;;;5.60;100.00;100453.13;4958465;28;20170;-90
2021/12/20 11:49:44;;;;;;;29.73;14.45;;;;;;;5.61;100.00;100446.94;4958463;28;20102;-91
2021/12/20 11:52:17;;;;;;;31.83;15.25;;;;;;;5.58;100.00;100430.63;4942679;28;20066;-90
2021/12/20 11:54:46;;;;;;;;;;;;;;;5.88;100.00;100469.03;4958400;28;20062;-90
2021/12/20 11:57:36;;;;;;;43.35;16.60;;;;;;;5.89;100.00;100461.09;4958641;28;19953;-91
2021/12/20 12:00:21;;;;;;;36.45;14.82;;;;;;;5.67;100.00;100425.59;4959170;28;20102;-90
2021/12/20 12:02:50;;;;;;;;;;;;;;;6.02;100.00;100465.34;4957633;28;20042;-90
2021/12/20 12:05:47;;;;;;;33.63;13.20;;;;;;;5.61;100.00;100452.16;4959993;28;19942;-90